Time;durP1;ratioP1;P1;durP2;ratioP2;P2;SDS_P1;SDS_P2;PMS_P1;PMS_P2;Temp;Humidity;BMP_temperature;BMP_pressure;BME280_temperature;BME280_humidity;BME280_pressure;Samples;Min_cycle;Max_cycle;Signal;HPM_P1;HPM_P2
2022/12/22 03:28:04;;;;;;;8.93;6.20;;;;;;;6.37;100.00;99589.72;4916740;29;20049;-83
2022/12/22 03:30:30;;;;;;;9.35;6.00;;;;;;;6.36;100.00;99586.19;4916433;29;20091;-84
2022/12/22 03:32:56;;;;;;;8.95;5.97;;;;;;;6.33;100.00;99576.63;4901881;29;20040;-83
2022/12/22 03:35:22;;;;;;;7.25;5.70;;;;;;;6.29;100.00;99585.38;4932190;29;20043;-83
2022/12/22 03:37:48;;;;;;;7.95;6.20;;;;;;;6.28;100.00;99583.72;4933951;29;20098;-83
2022/12/22 03:40:14;;;;;;;8.38;5.97;;;;;;;6.29;100.00;99586.22;4933619;29;20035;-84
2022/12/22 03:48:10;;;;;;;9.60;6.20;;;;;;;6.05;100.00;99566.09;4916661;29;20446;-84
2022/12/22 03:50:36;;;;;;;9.77;6.45;;;;;;;5.99;100.00;99567.78;4933915;29;20040;-83
2022/12/22 03:53:03;;;;;;;10.48;7.25;;;;;;;5.96;100.00;99562.75;4915388;29;20035;-81
2022/12/22 03:55:29;;;;;;;10.47;7.17;;;;;;;5.95;100.00;99552.16;4933684;29;20050;-83
2022/12/22 03:57:55;;;;;;;10.20;6.93;;;;;;;5.98;100.00;99549.00;4925366;29;20122;-83
2022/12/22 04:00:22;;;;;;;10.80;7.20;;;;;;;5.99;100.00;99547.97;4933181;29;20044;-84
2022/12/22 04:02:48;;;;;;;10.20;7.25;;;;;;;5.97;100.00;99550.06;4901840;29;20074;-84
2022/12/22 04:05:14;;;;;;;9.00;6.55;;;;;;;5.98;100.00;99540.91;4933358;29;20036;-84
2022/12/22 04:07:40;;;;;;;9.82;7.00;;;;;;;5.99;100.00;99529.00;4933851;29;20047;-84
2022/12/22 04:12:54;;;;;;;11.77;7.93;;;;;;;5.83;100.00;99531.13;4936888;29;20044;-84
2022/12/22 04:15:29;;;;;;;10.90;7.72;;;;;;;5.76;100.00;99536.59;4937640;29;20036;-84
2022/12/22 04:17:55;;;;;;;13.05;8.77;;;;;;;5.64;100.00;99530.16;4932972;29;20044;-85
2022/12/22 04:20:25;;;;;;;11.73;7.63;;;;;;;5.65;100.00;99522.88;4937155;29;20055;-85
2022/12/22 04:22:52;;;;;;;11.55;7.95;;;;;;;5.82;100.00;99524.06;4915701;29;20299;-84
2022/12/22 04:25:19;;;;;;;12.80;8.27;;;;;;;5.98;100.00;99516.53;4937034;29;20056;-83
2022/12/22 04:27:45;;;;;;;13.27;8.45;;;;;;;6.05;100.00;99511.94;4937364;29;20046;-84
2022/12/22 04:30:11;;;;;;;12.38;8.35;;;;;;;6.09;100.00;99502.34;4919622;29;20047;-83
2022/12/22 04:32:37;;;;;;;10.95;7.68;;;;;;;6.10;100.00;99497.75;4919148;29;20051;-83
2022/12/22 04:35:05;;;;;;;12.70;7.90;;;;;;;6.13;100.00;99506.28;4919583;29;20034;-83
2022/12/22 04:37:31;;;;;;;11.85;8.60;;;;;;;6.18;100.00;99508.34;4937486;29;20095;-84
2022/12/22 04:39:57;;;;;;;11.63;8.27;;;;;;;6.16;100.00;99505.00;4919695;29;20059;-83
2022/12/22 04:42:23;;;;;;;11.52;7.63;;;;;;;6.24;100.00;99504.78;4932798;29;20042;-83
2022/12/22 04:44:50;;;;;;;11.18;7.55;;;;;;;6.16;100.00;99508.56;4931789;29;20059;-84
2022/12/22 04:47:16;;;;;;;10.25;7.47;;;;;;;6.10;100.00;99498.59;4913196;29;20103;-84
2022/12/22 04:49:42;;;;;;;12.18;7.82;;;;;;;6.08;100.00;99507.97;4914729;29;20047;-83
2022/12/22 04:52:08;;;;;;;11.32;7.45;;;;;;;5.95;100.00;99500.72;4913059;29;20042;-84
2022/12/22 04:54:35;;;;;;;10.57;7.82;;;;;;;5.97;100.00;99493.19;4918860;29;20036;-84
2022/12/22 04:57:01;;;;;;;11.10;7.85;;;;;;;6.00;100.00;99487.34;4932167;29;20508;-83
2022/12/22 04:59:27;;;;;;;11.45;8.02;;;;;;;6.00;100.00;99476.53;4935097;29;20040;-82
2022/12/22 05:01:53;;;;;;;11.93;8.20;;;;;;;6.01;100.00;99467.38;4929915;29;20039;-86
2022/12/22 05:04:19;;;;;;;11.82;8.32;;;;;;;6.03;100.00;99471.56;4918957;29;20040;-85
2022/12/22 05:06:45;;;;;;;10.82;7.88;;;;;;;5.99;100.00;99464.88;4931517;29;20040;-85
2022/12/22 05:09:11;;;;;;;11.77;8.23;;;;;;;5.99;100.00;99467.59;4934473;29;20530;-86
2022/12/22 05:11:37;;;;;;;11.98;8.57;;;;;;;6.01;100.00;99462.81;4936053;29;20072;-86
2022/12/22 05:14:04;;;;;;;12.02;8.68;;;;;;;6.07;100.00;99452.97;4931150;29;20051;-85
2022/12/22 05:16:32;;;;;;;12.07;8.30;;;;;;;6.05;100.00;99457.78;4934367;29;20051;-86
2022/12/22 05:18:58;;;;;;;11.77;8.27;;;;;;;6.08;100.00;99451.13;4919184;29;20051;-84
2022/12/22 05:21:24;;;;;;;13.07;8.90;;;;;;;6.12;100.00;99434.22;4935690;29;20127;-84
2022/12/22 05:23:50;;;;;;;13.45;9.25;;;;;;;6.10;100.00;99430.06;4936220;29;20036;-85
2022/12/22 05:26:18;;;;;;;12.38;8.63;;;;;;;6.12;100.00;99436.09;4935380;29;20399;-84
2022/12/22 05:28:46;;;;;;;12.52;8.55;;;;;;;6.10;100.00;99439.03;4903000;29;20130;-84
2022/12/22 05:31:30;;;;;;;12.32;8.45;;;;;;;6.07;100.00;99431.31;4935897;29;20329;-85
2022/12/22 05:33:56;;;;;;;11.55;8.52;;;;;;;6.05;100.00;99425.28;4920039;29;20072;-84
2022/12/22 05:36:22;;;;;;;15.23;8.63;;;;;;;6.04;100.00;99429.03;4931283;29;20054;-84
2022/12/22 05:38:48;;;;;;;12.38;8.52;;;;;;;5.95;100.00;99428.44;4935863;29;20070;-84
2022/12/22 05:41:14;;;;;;;12.70;9.07;;;;;;;5.94;100.00;99429.47;4920941;29;20502;-85
2022/12/22 05:43:41;;;;;;;13.50;9.48;;;;;;;6.02;100.00;99431.13;4938261;29;20036;-83
2022/12/22 05:46:09;;;;;;;13.45;9.55;;;;;;;6.11;100.00;99418.19;4922420;29;20079;-83
2022/12/22 05:48:36;;;;;;;12.43;9.20;;;;;;;6.18;100.00;99414.41;4938357;29;20046;-84
2022/12/22 05:51:02;;;;;;;13.70;9.68;;;;;;;6.23;100.00;99411.00;4933866;29;20114;-83
2022/12/22 05:53:28;;;;;;;13.52;9.70;;;;;;;6.22;100.00;99409.34;4915225;29;20129;-85
2022/12/22 05:55:54;;;;;;;14.55;9.23;;;;;;;6.20;100.00;99406.03;4934095;29;20032;-84
2022/12/22 05:58:20;;;;;;;13.65;9.50;;;;;;;6.21;100.00;99404.16;4918802;29;20474;-85
2022/12/22 06:00:46;;;;;;;13.55;9.10;;;;;;;6.21;100.00;99406.88;4917894;29;20032;-86
2022/12/22 06:03:12;;;;;;;13.65;8.77;;;;;;;6.19;100.00;99399.81;4936176;29;20051;-85
2022/12/22 06:05:39;;;;;;;14.13;9.50;;;;;;;6.20;100.00;99395.19;4932427;29;20036;-86
2022/12/22 06:08:05;;;;;;;15.98;9.30;;;;;;;6.17;100.00;99396.50;4920297;29;20123;-85
2022/12/22 06:10:31;;;;;;;15.85;9.35;;;;;;;6.13;100.00;99389.00;4913880;29;20035;-85
2022/12/22 06:12:57;;;;;;;13.70;9.27;;;;;;;6.11;100.00;99391.94;4935186;29;20055;-85
2022/12/22 06:15:23;;;;;;;14.82;9.88;;;;;;;6.09;100.00;99388.59;4934020;29;20035;-85
2022/12/22 06:17:49;;;;;;;15.10;9.85;;;;;;;6.07;100.00;99384.47;4918753;29;20204;-85
2022/12/22 06:20:15;;;;;;;19.67;10.65;;;;;;;6.00;100.00;99381.75;4938156;29;20049;-83
2022/12/22 06:22:41;;;;;;;15.38;10.35;;;;;;;5.96;100.00;99383.25;4936898;29;20096;-85
2022/12/22 06:25:08;;;;;;;15.00;10.30;;;;;;;5.89;100.00;99375.16;4932292;29;20087;-83
2022/12/22 06:27:34;;;;;;;16.70;11.13;;;;;;;5.88;100.00;99376.22;4911888;29;20032;-83
2022/12/22 06:30:01;;;;;;;19.73;10.68;;;;;;;5.87;100.00;99375.41;4912359;29;20087;-85
2022/12/22 06:32:27;;;;;;;15.23;10.07;;;;;;;5.84;100.00;99375.84;4933029;29;20039;-84
2022/12/22 06:34:53;;;;;;;16.02;10.88;;;;;;;5.85;100.00;99380.19;4920483;29;20090;-88
2022/12/22 06:37:20;;;;;;;17.98;10.98;;;;;;;5.85;100.00;99372.06;4925335;29;20425;-82
2022/12/22 06:39:46;;;;;;;19.15;11.18;;;;;;;5.88;100.00;99370.78;4944228;29;20047;-84
2022/12/22 06:44:57;;;;;;;18.35;11.15;;;;;;;5.71;100.00;99354.25;4938457;29;20526;-82
2022/12/22 06:47:23;;;;;;;16.00;10.35;;;;;;;5.74;100.00;99365.47;4935035;29;20031;-85
2022/12/22 06:49:50;;;;;;;19.27;10.93;;;;;;;5.71;100.00;99365.91;4936998;29;20059;-84
2022/12/22 06:52:16;;;;;;;16.40;10.85;;;;;;;5.71;100.00;99365.06;4935696;29;20039;-85
2022/12/22 06:54:42;;;;;;;17.50;11.88;;;;;;;5.68;100.00;99357.38;4912290;29;20408;-83
2022/12/22 06:57:08;;;;;;;18.98;11.18;;;;;;;5.69;100.00;99351.72;4930188;29;20443;-83
2022/12/22 06:59:34;;;;;;;19.77;11.57;;;;;;;5.73;100.00;99352.16;4940186;29;20043;-83
2022/12/22 07:02:00;;;;;;;19.75;12.35;;;;;;;5.78;100.00;99352.31;4907204;29;20091;-83
2022/12/22 07:04:28;;;;;;;19.67;12.30;;;;;;;5.80;100.00;99350.22;4934857;29;20399;-83
2022/12/22 07:06:54;;;;;;;19.05;11.73;;;;;;;5.81;100.00;99351.06;4934241;29;20043;-82
2022/12/22 07:09:20;;;;;;;21.75;12.23;;;;;;;5.86;100.00;99360.19;4913084;29;20059;-84
2022/12/22 07:11:46;;;;;;;18.70;12.13;;;;;;;5.86;100.00;99357.50;4932611;29;20027;-82
2022/12/22 07:14:12;;;;;;;19.80;11.77;;;;;;;5.94;100.00;99352.88;4911747;29;20570;-82
2022/12/22 07:16:38;;;;;;;18.05;11.70;;;;;;;5.92;100.00;99358.47;4932164;29;20044;-81
2022/12/22 07:19:05;;;;;;;17.92;11.63;;;;;;;5.97;100.00;99353.28;4933782;29;20024;-82
2022/12/22 07:21:31;;;;;;;17.90;11.88;;;;;;;5.96;100.00;99354.28;4930126;29;20134;-81
2022/12/22 07:23:57;;;;;;;19.35;12.63;;;;;;;5.97;100.00;99357.84;4934314;29;20123;-80
2022/12/22 07:26:23;;;;;;;20.77;12.30;;;;;;;5.97;100.00;99350.56;4933974;29;20088;-81
2022/12/22 07:28:49;;;;;;;21.27;12.32;;;;;;;6.01;100.00;99356.38;4933207;29;20110;-82
2022/12/22 07:31:17;;;;;;;19.73;12.50;;;;;;;6.07;100.00;99351.97;4931015;29;20044;-81
2022/12/22 07:33:43;;;;;;;19.73;12.38;;;;;;;6.12;100.00;99355.69;4931067;29;20130;-82
2022/12/22 07:36:17;;;;;;;21.60;12.30;;;;;;;6.11;100.00;99342.38;4931401;29;20058;-83
2022/12/22 07:38:46;;;;;;;21.27;12.70;;;;;;;6.11;100.00;99345.06;4931756;29;20510;-83
2022/12/22 07:44:00;;;;;;;22.77;12.88;;;;;;;6.16;100.00;99340.66;4931032;29;20047;-81
2022/12/22 07:46:29;;;;;;;23.90;12.95;;;;;;;6.22;100.00;99338.94;4931582;29;20384;-83
2022/12/22 07:51:41;;;;;;;19.95;12.43;;;;;;;6.34;100.00;99339.06;4907805;29;20040;-84
2022/12/22 07:54:09;;;;;;;21.38;12.35;;;;;;;6.40;100.00;99334.63;4908417;29;20083;-83
2022/12/22 07:56:36;;;;;;;21.48;13.07;;;;;;;6.46;100.00;99334.59;4931800;29;20040;-83
2022/12/22 07:59:02;;;;;;;22.52;13.10;;;;;;;6.47;100.00;99330.81;4929804;29;20055;-82
2022/12/22 08:01:28;;;;;;;18.95;12.07;;;;;;;6.47;100.00;99327.28;4931375;29;20042;-81
2022/12/22 08:03:55;;;;;;;19.98;12.65;;;;;;;6.51;100.00;99324.94;4909778;29;20122;-81
2022/12/22 08:06:22;;;;;;;17.85;11.77;;;;;;;6.51;100.00;99330.38;4933518;29;20032;-81
2022/12/22 08:08:48;;;;;;;20.40;12.10;;;;;;;6.51;100.00;99333.94;4935374;29;20043;-82
2022/12/22 08:11:14;;;;;;;18.45;12.05;;;;;;;6.54;100.00;99330.78;4930933;29;20040;-81
2022/12/22 08:13:42;;;;;;;19.98;12.52;;;;;;;6.53;100.00;99334.53;4929386;29;20051;-81
2022/12/22 08:16:09;;;;;;;;;;;;;;;6.55;100.00;99337.00;4913862;29;20039;-83
2022/12/22 08:18:36;;;;;;;19.52;11.75;;;;;;;6.52;100.00;99334.75;4926939;29;19919;-82
2022/12/22 08:21:04;;;;;;;20.85;12.30;;;;;;;6.50;100.00;99334.97;4935442;29;20078;-81
2022/12/22 08:23:31;;;;;;;21.15;12.80;;;;;;;6.48;100.00;99337.91;4933247;29;20040;-81
2022/12/22 08:26:07;;;;;;;19.73;12.05;;;;;;;6.45;100.00;99338.34;4933443;29;20458;-82
2022/12/22 08:28:40;;;;;;;20.02;12.85;;;;;;;6.44;100.00;99333.13;4933278;29;20511;-82
2022/12/22 08:31:07;;;;;;;23.35;13.23;;;;;;;6.44;100.00;99336.69;4927934;29;20036;-86
2022/12/22 08:33:33;;;;;;;21.17;12.90;;;;;;;6.43;100.00;99334.19;4927881;29;20079;-82
2022/12/22 08:36:00;;;;;;;24.13;13.20;;;;;;;6.43;100.00;99335.03;4929887;29;20115;-82
2022/12/22 08:38:26;;;;;;;21.35;13.55;;;;;;;6.44;100.00;99331.28;4929846;29;20487;-81
2022/12/22 08:40:52;;;;;;;21.20;13.23;;;;;;;6.45;100.00;99327.50;4920843;29;20475;-81
2022/12/22 08:43:20;;;;;;;26.05;14.48;;;;;;;6.45;100.00;99330.22;4914127;29;20048;-81
2022/12/22 08:45:46;;;;;;;20.42;12.65;;;;;;;6.44;100.00;99342.09;4925280;29;20395;-81
2022/12/22 08:48:12;;;;;;;23.50;13.15;;;;;;;6.46;100.00;99334.59;4931654;29;20040;-81
2022/12/22 08:50:38;;;;;;;30.10;14.70;;;;;;;6.45;100.00;99326.66;4912449;29;20549;-81
2022/12/22 08:53:06;;;;;;;23.27;13.57;;;;;;;6.42;100.00;99329.81;4932288;29;20032;-82
2022/12/22 08:55:32;;;;;;;24.63;12.68;;;;;;;6.43;100.00;99334.19;4934235;29;20531;-82
2022/12/22 08:57:58;;;;;;;29.13;14.48;;;;;;;6.46;100.00;99340.00;4933930;29;20046;-82
2022/12/22 09:00:25;;;;;;;29.80;14.73;;;;;;;6.47;100.00;99330.81;4934727;29;20154;-82
2022/12/22 09:02:51;;;;;;;23.88;12.68;;;;;;;6.49;100.00;99338.72;4933315;29;20035;-82
2022/12/22 09:05:18;;;;;;;24.08;13.48;;;;;;;6.53;100.00;99339.94;4920552;29;20043;-82
2022/12/22 09:07:46;;;;;;;23.52;14.05;;;;;;;6.57;100.00;99340.31;4917020;29;20062;-82
2022/12/22 09:10:13;;;;;;;19.52;11.35;;;;;;;6.59;100.00;99343.63;4933642;29;20566;-83
2022/12/22 09:12:39;;;;;;;21.02;11.90;;;;;;;6.59;100.00;99349.91;4932273;29;20036;-84
2022/12/22 09:15:09;;;;;;;19.17;11.43;;;;;;;6.58;100.00;99341.97;4914664;29;20046;-85
2022/12/22 09:17:36;;;;;;;23.02;14.00;;;;;;;6.61;100.00;99346.94;4935046;29;20071;-82
2022/12/22 09:20:04;;;;;;;22.75;13.10;;;;;;;6.62;100.00;99348.59;4934119;29;20491;-82
2022/12/22 09:22:30;;;;;;;23.15;11.95;;;;;;;6.63;100.00;99344.88;4935571;29;20044;-79
2022/12/22 09:24:56;;;;;;;22.52;13.50;;;;;;;6.69;100.00;99349.41;4932859;29;20054;-80
2022/12/22 09:27:22;;;;;;;22.15;13.30;;;;;;;6.74;100.00;99349.53;4912987;29;20361;-80
2022/12/22 09:29:48;;;;;;;23.08;13.63;;;;;;;6.81;100.00;99348.66;4926488;29;20056;-81
2022/12/22 09:32:14;;;;;;;21.30;12.48;;;;;;;6.86;100.00;99344.22;4931139;29;20048;-80
2022/12/22 09:34:40;;;;;;;25.30;13.95;;;;;;;6.88;100.00;99347.53;4930967;29;20036;-83
2022/12/22 09:37:07;;;;;;;21.35;13.27;;;;;;;6.89;100.00;99361.91;4928100;29;20036;-82
2022/12/22 09:39:33;;;;;;;18.83;11.90;;;;;;;6.72;100.00;99359.78;4930196;29;20103;-78
2022/12/22 09:42:00;;;;;;;20.30;12.10;;;;;;;6.64;100.00;99364.66;4933249;29;20380;-83
2022/12/22 09:44:29;;;;;;;23.60;12.73;;;;;;;6.70;100.00;99363.75;4933307;29;20079;-83
2022/12/22 09:46:58;;;;;;;22.17;12.93;;;;;;;6.78;100.00;99368.06;4919590;29;20075;-82
2022/12/22 09:49:24;;;;;;;23.15;12.75;;;;;;;6.75;100.00;99369.34;4933825;29;20135;-82
2022/12/22 09:51:56;;;;;;;23.42;12.73;;;;;;;6.76;100.00;99371.84;4933492;29;20090;-83
2022/12/22 09:54:24;;;;;;;24.52;13.43;;;;;;;6.88;100.00;99368.38;4934364;29;20139;-83
2022/12/22 09:56:50;;;;;;;;;;;;;;;6.97;100.00;99371.63;4931792;29;20067;-80
2022/12/22 09:59:19;;;;;;;23.05;13.43;;;;;;;7.02;100.00;99375.34;4928047;29;20017;-81
2022/12/22 10:02:15;;;;;;;25.50;14.32;;;;;;;7.11;100.00;99369.59;4934537;29;20039;-81
2022/12/22 10:05:14;;;;;;;25.73;14.40;;;;;;;7.19;100.00;99374.75;4934790;29;20040;-80
2022/12/22 10:07:41;;;;;;;28.77;14.93;;;;;;;7.28;100.00;99373.38;4933080;29;20043;-79
2022/12/22 10:10:19;;;;;;;25.48;13.63;;;;;;;7.32;100.00;99376.50;4934043;29;20086;-80
2022/12/22 10:12:47;;;;;;;26.37;13.93;;;;;;;7.39;100.00;99373.69;4933171;29;20408;-80
2022/12/22 10:15:13;;;;;;;27.13;14.63;;;;;;;7.44;100.00;99373.84;4934467;29;20817;-80
2022/12/22 10:17:39;;;;;;;28.25;13.98;;;;;;;7.49;100.00;99376.69;4934982;29;20044;-81
2022/12/22 10:20:27;;;;;;;26.77;14.60;;;;;;;7.54;100.00;99370.56;4931356;29;20044;-80
2022/12/22 10:23:05;;;;;;;24.23;13.48;;;;;;;7.56;100.00;99374.72;4933702;29;20055;-80
2022/12/22 10:25:31;;;;;;;21.85;12.23;;;;;;;7.62;100.00;99381.13;4930706;29;20058;-80
2022/12/22 10:28:18;;;;;;;21.40;12.23;;;;;;;7.62;100.00;99364.84;4936111;29;20118;-80
2022/12/22 10:30:45;;;;;;;21.63;12.65;;;;;;;7.53;100.00;99377.91;4918562;29;20040;-79
2022/12/22 10:33:16;;;;;;;23.88;13.70;;;;;;;7.51;100.00;99377.31;4934504;29;20492;-79
2022/12/22 10:35:55;;;;;;;24.65;12.75;;;;;;;7.55;100.00;99369.50;4934354;29;20482;-79
2022/12/22 10:38:27;;;;;;;23.25;12.65;;;;;;;7.62;100.00;99379.22;4934495;29;20554;-78
2022/12/22 10:41:12;;;;;;;21.73;11.90;;;;;;;7.65;100.00;99377.13;4935118;29;20098;-78
2022/12/22 10:43:49;;;;;;;23.27;12.45;;;;;;;7.61;100.00;99372.16;4933863;29;20480;-79
2022/12/22 10:46:17;;;;;;;22.73;12.70;;;;;;;7.55;100.00;99377.66;4916868;29;20039;-79
2022/12/22 10:48:43;;;;;;;21.33;12.23;;;;;;;7.52;100.00;99389.81;4917524;29;20042;-78
2022/12/22 10:51:13;;;;;;;22.63;12.25;;;;;;;7.52;100.00;99392.53;4934117;29;20036;-80
2022/12/22 10:53:48;;;;;;;21.67;11.77;;;;;;;7.52;100.00;99389.81;4917430;29;20044;-80
2022/12/22 10:56:31;;;;;;;22.58;12.25;;;;;;;7.56;100.00;99401.88;4931211;29;20074;-79
2022/12/22 10:59:18;;;;;;;22.85;12.18;;;;;;;7.58;100.00;99399.75;4932718;29;20487;-78
2022/12/22 11:01:45;;;;;;;19.65;11.82;;;;;;;7.59;100.00;99404.13;4915957;29;20040;-78
2022/12/22 11:04:29;;;;;;;23.35;12.30;;;;;;;7.62;100.00;99406.38;4933890;29;20051;-78
2022/12/22 11:06:58;;;;;;;22.33;11.85;;;;;;;7.63;100.00;99415.38;4916408;29;20136;-79
2022/12/22 11:09:25;;;;;;;18.92;11.10;;;;;;;7.66;100.00;99412.19;4933762;29;20053;-79
2022/12/22 11:12:00;;;;;;;20.52;11.32;;;;;;;7.58;100.00;99416.03;4916440;29;20325;-79
2022/12/22 11:14:49;;;;;;;19.58;10.60;;;;;;;7.59;100.00;99420.41;4933903;29;20047;-79
2022/12/22 11:17:19;;;;;;;19.15;11.30;;;;;;;7.50;100.00;99432.63;4923430;29;20040;-78
2022/12/22 11:20:08;;;;;;;17.75;10.80;;;;;;;7.51;100.00;99426.16;4916267;29;20064;-79
2022/12/22 11:22:52;;;;;;;18.67;10.50;;;;;;;7.54;100.00;99431.13;4932519;29;20036;-81
2022/12/22 11:25:50;;;;;;;20.45;10.88;;;;;;;7.46;100.00;99436.88;4927533;29;20035;-79
2022/12/22 11:28:28;;;;;;;23.85;11.82;;;;;;;7.46;100.00;99440.38;4928626;29;20047;-79
2022/12/22 11:30:57;;;;;;;24.40;12.18;;;;;;;7.39;100.00;99446.94;4933593;29;20043;-79
2022/12/22 11:34:13;;;;;;;22.98;12.07;;;;;;;7.36;100.00;99434.66;4928581;29;20500;-80
2022/12/22 11:37:11;;;;;;;28.67;13.68;;;;;;;7.22;100.00;99444.00;4911775;29;20040;-79
2022/12/22 11:40:02;;;;;;;30.63;14.32;;;;;;;7.14;100.00;99447.81;4898785;29;20036;-78
2022/12/22 11:42:55;;;;;;;30.60;15.35;;;;;;;7.11;100.00;99456.41;4916892;29;20491;-78
2022/12/22 11:45:50;;;;;;;27.88;12.85;;;;;;;7.11;100.00;99459.97;4933262;29;20039;-79
2022/12/22 11:48:39;;;;;;;36.22;15.57;;;;;;;7.13;100.00;99457.84;4916842;29;20395;-81
2022/12/22 11:51:21;;;;;;;33.92;15.35;;;;;;;7.17;100.00;99452.81;4917142;29;20126;-80
2022/12/22 11:54:02;;;;;;;35.70;16.33;;;;;;;7.23;100.00;99451.06;4933969;29;20040;-80
2022/12/22 11:56:35;;;;;;;41.35;17.00;;;;;;;7.40;100.00;99456.75;4926158;29;20028;-80
2022/12/22 11:59:20;;;;;;;36.75;15.75;;;;;;;7.54;100.00;99460.13;4933483;29;20043;-80
2022/12/22 12:01:51;;;;;;;31.52;16.13;;;;;;;7.58;100.00;99475.75;4900335;29;20035;-81
2022/12/22 12:05:00;;;;;;;34.75;16.55;;;;;;;7.65;100.00;99472.97;4912646;29;20035;-82
2022/12/22 12:07:38;;;;;;;32.00;15.65;;;;;;;7.61;100.00;99480.72;4915858;29;20036;-85
2022/12/22 12:10:27;;;;;;;33.55;14.85;;;;;;;7.61;100.00;99486.16;4927482;29;20071;-82
2022/12/22 12:12:56;;;;;;;;;;;;;;;7.55;100.00;99492.50;4913269;29;20055;-89
2022/12/22 12:15:49;;;;;;;31.13;14.00;;;;;;;7.53;100.00;99494.59;4931542;29;19919;-88
2022/12/22 12:18:26;;;;;;;28.60;14.05;;;;;;;7.47;100.00;99495.50;4937885;29;20174;-87
2022/12/22 12:21:13;;;;;;;28.08;13.98;;;;;;;7.49;100.00;99490.69;4945228;29;20046;-89
2022/12/22 12:23:42;;;;;;;29.48;14.07;;;;;;;7.55;100.00;99492.50;4938216;29;20031;-87
2022/12/22 12:26:14;;;;;;;27.75;13.27;;;;;;;7.58;100.00;99505.59;4937542;29;20048;-86
2022/12/22 12:28:53;;;;;;;28.25;13.50;;;;;;;7.56;100.00;99505.00;4943245;29;20036;-85
2022/12/22 12:31:28;;;;;;;24.40;12.98;;;;;;;7.51;100.00;99502.16;4942159;29;20054;-88
2022/12/22 12:33:59;;;;;;;28.83;13.60;;;;;;;7.54;100.00;99506.28;4933209;29;20077;-87
2022/12/22 12:37:03;;;;;;;25.65;13.40;;;;;;;7.62;100.00;99498.66;4924395;29;20032;-85
2022/12/22 12:39:35;;;;;;;26.50;13.27;;;;;;;7.75;100.00;99519.41;4925082;29;20071;-88
2022/12/22 12:42:20;;;;;;;29.98;12.80;;;;;;;7.76;100.00;99514.81;4940166;29;20039;-88
2022/12/22 12:44:46;;;;;;;27.05;12.73;;;;;;;7.77;100.00;99516.50;4941419;29;20036;-88
2022/12/22 12:47:33;;;;;;;22.08;12.32;;;;;;;7.75;100.00;99532.19;4936699;29;20043;-91
2022/12/22 12:50:18;;;;;;;23.40;13.07;;;;;;;7.69;100.00;99531.19;4935261;29;20035;-89
2022/12/22 12:52:47;;;;;;;23.63;12.23;;;;;;;7.63;100.00;99538.34;4938771;29;20169;-83
2022/12/22 12:55:28;;;;;;;24.55;12.32;;;;;;;7.52;100.00;99544.50;4930858;29;20126;-82
2022/12/22 12:57:55;;;;;;;24.85;12.73;;;;;;;7.51;100.00;99561.84;4916887;29;20044;-80
2022/12/22 13:00:30;;;;;;;25.88;12.73;;;;;;;7.45;100.00;99568.19;4936287;29;20083;-80
2022/12/22 13:03:00;;;;;;;28.45;13.85;;;;;;;7.42;100.00;99574.03;4936559;29;20035;-80
2022/12/22 13:05:51;;;;;;;28.05;13.75;;;;;;;7.33;100.00;99574.31;4936463;29;20514;-82
2022/12/22 13:08:25;;;;;;;28.70;14.63;;;;;;;7.36;100.00;99569.50;4915978;29;20392;-86
2022/12/22 13:10:54;;;;;;;28.38;13.73;;;;;;;7.32;100.00;99577.25;4912369;29;20085;-83
2022/12/22 13:13:23;;;;;;;32.47;14.90;;;;;;;7.33;100.00;99584.34;4935560;29;20381;-82
2022/12/22 13:15:59;;;;;;;28.88;14.52;;;;;;;7.33;100.00;99573.50;4936626;29;20090;-81
2022/12/22 13:18:25;;;;;;;30.20;14.90;;;;;;;7.36;100.00;99580.34;4936259;29;20031;-80
2022/12/22 13:20:59;;;;;;;32.30;15.18;;;;;;;7.39;100.00;99582.63;4935469;29;20052;-79
2022/12/22 13:23:35;;;;;;;26.88;13.75;;;;;;;7.42;100.00;99584.88;4934874;29;20040;-81
2022/12/22 13:26:12;;;;;;;29.55;14.63;;;;;;;7.43;100.00;99587.38;4923775;29;20523;-81
2022/12/22 13:28:41;;;;;;;28.00;14.05;;;;;;;7.48;100.00;99594.88;4935856;29;20046;-81
2022/12/22 13:31:41;;;;;;;29.80;14.80;;;;;;;7.44;100.00;99602.63;4930992;29;20415;-80
2022/12/22 13:34:26;;;;;;;;;;;;;;;7.47;100.00;99610.31;4931955;29;20063;-81
2022/12/22 13:36:54;;;;;;;29.70;14.18;;;;;;;7.53;100.00;99619.47;4935633;29;19969;-80
2022/12/22 13:39:20;;;;;;;29.20;14.32;;;;;;;7.53;100.00;99619.47;4935794;29;20388;-80
2022/12/22 13:41:48;;;;;;;30.50;15.77;;;;;;;7.55;100.00;99625.50;4930010;29;20044;-81
2022/12/22 13:44:17;;;;;;;;;;;;;;;7.59;100.00;99625.88;4919381;29;20067;-81
2022/12/22 13:46:43;;;;;;;26.42;14.48;;;;;;;7.58;100.00;99633.19;4934309;29;19919;-81
2022/12/22 13:49:15;;;;;;;29.00;13.27;;;;;;;7.50;100.00;99628.03;4936602;29;20035;-79
2022/12/22 13:51:41;;;;;;;25.13;13.88;;;;;;;7.41;100.00;99642.91;4934299;29;20488;-83
2022/12/22 13:54:24;;;;;;;27.23;14.10;;;;;;;7.37;100.00;99657.97;4915934;29;20051;-80
2022/12/22 13:56:53;;;;;;;28.73;13.73;;;;;;;7.36;100.00;99656.31;4935270;29;20036;-80
2022/12/22 13:59:26;;;;;;;23.20;13.32;;;;;;;7.29;100.00;99651.78;4930084;29;20044;-81
2022/12/22 14:01:58;;;;;;;26.10;13.40;;;;;;;7.28;100.00;99649.28;4935329;29;20396;-79
2022/12/22 14:04:25;;;;;;;30.05;13.25;;;;;;;7.26;100.00;99662.22;4935174;29;20038;-80
2022/12/22 14:06:53;;;;;;;25.30;13.05;;;;;;;7.23;100.00;99657.25;4934437;29;20051;-80
2022/12/22 14:09:25;;;;;;;25.55;13.05;;;;;;;7.21;100.00;99657.47;4914634;29;20060;-80
2022/12/22 14:12:06;;;;;;;24.60;13.13;;;;;;;7.24;100.00;99662.47;4935576;29;20044;-79
2022/12/22 14:14:41;;;;;;;28.73;13.27;;;;;;;7.33;100.00;99663.84;4934990;29;20537;-80
2022/12/22 14:17:28;;;;;;;25.83;13.30;;;;;;;7.37;100.00;99668.84;4924115;29;20040;-80
2022/12/22 14:20:00;;;;;;;23.73;12.20;;;;;;;7.41;100.00;99676.31;4932845;29;20046;-80
2022/12/22 14:22:52;;;;;;;21.77;11.55;;;;;;;7.35;100.00;99671.78;4935524;29;20042;-80
2022/12/22 14:25:22;;;;;;;25.67;12.75;;;;;;;7.26;100.00;99668.50;4935040;29;20043;-81
2022/12/22 14:27:54;;;;;;;23.88;12.30;;;;;;;7.19;100.00;99673.16;4934989;29;20043;-80
2022/12/22 14:30:36;;;;;;;24.38;12.35;;;;;;;7.11;100.00;99670.66;4934709;29;20035;-80
2022/12/22 14:33:26;;;;;;;24.52;12.90;;;;;;;7.01;100.00;99665.72;4935514;29;20114;-79
2022/12/22 14:36:22;;;;;;;22.30;11.55;;;;;;;6.94;100.00;99673.06;4933265;29;20044;-79
2022/12/22 14:38:51;;;;;;;22.23;11.50;;;;;;;6.81;100.00;99676.69;4914572;29;20102;-80
2022/12/22 14:41:41;;;;;;;24.48;10.98;;;;;;;6.70;100.00;99684.44;4935668;29;20032;-81
2022/12/22 14:44:28;;;;;;;20.80;10.52;;;;;;;6.58;100.00;99683.44;4935397;29;20040;-79
2022/12/22 14:47:06;;;;;;;21.75;10.43;;;;;;;6.47;100.00;99691.19;4935114;29;20040;-78
2022/12/22 14:49:34;;;;;;;20.25;10.40;;;;;;;6.43;100.00;99694.53;4933983;29;20035;-79
2022/12/22 14:52:12;;;;;;;19.05;9.88;;;;;;;6.35;100.00;99684.75;4932405;29;20047;-78
2022/12/22 14:54:39;;;;;;;17.50;8.88;;;;;;;6.25;100.00;99692.50;4935338;29;20603;-78
2022/12/22 14:57:10;;;;;;;21.02;9.45;;;;;;;6.18;100.00;99685.22;4935338;29;20044;-78
2022/12/22 14:59:36;;;;;;;18.13;9.23;;;;;;;6.08;100.00;99690.22;4935446;29;20038;-77
2022/12/22 15:02:19;;;;;;;18.33;9.30;;;;;;;6.01;100.00;99694.84;4934771;29;20066;-78
2022/12/22 15:04:45;;;;;;;21.02;9.50;;;;;;;5.84;100.00;99691.69;4933486;29;20121;-78
2022/12/22 15:07:18;;;;;;;19.58;9.35;;;;;;;5.71;100.00;99692.53;4901179;29;20403;-78
2022/12/22 15:09:44;;;;;;;18.20;9.70;;;;;;;5.63;100.00;99703.56;4930905;29;20028;-79
2022/12/22 15:12:17;;;;;;;20.42;9.10;;;;;;;5.52;100.00;99708.53;4934083;29;20050;-78
2022/12/22 15:14:47;;;;;;;17.45;8.75;;;;;;;5.53;100.00;99715.63;4934032;29;20047;-78
2022/12/22 15:17:24;;;;;;;17.77;8.48;;;;;;;5.52;100.00;99719.34;4934240;29;20051;-77
2022/12/22 15:19:53;;;;;;;17.15;9.18;;;;;;;5.53;100.00;99722.91;4927641;29;20400;-77
2022/12/22 15:22:19;;;;;;;18.67;8.85;;;;;;;5.53;100.00;99729.13;4932154;29;20051;-77
2022/12/22 15:24:46;;;;;;;16.08;8.43;;;;;;;5.51;100.00;99725.00;4934783;29;20043;-77